createdAt,value
2023-02-08T00:01:50.819Z,-3.10
2023-02-08T00:04:22.094Z,-3.15
2023-02-08T00:06:53.361Z,-3.13
2023-02-08T00:09:24.756Z,-3.16
2023-02-08T00:11:56.202Z,-3.17
2023-02-08T00:14:27.479Z,-3.31
2023-02-08T00:16:58.802Z,-3.28
2023-02-08T00:19:30.192Z,-3.41
2023-02-08T00:22:01.471Z,-3.16
2023-02-08T00:24:33.194Z,-3.18
2023-02-08T00:27:04.603Z,-3.41
2023-02-08T00:29:35.932Z,-3.25
2023-02-08T00:32:07.222Z,-3.32
2023-02-08T00:34:38.859Z,-3.37
2023-02-08T00:37:10.895Z,-3.43
2023-02-08T00:39:42.250Z,-3.45
2023-02-08T00:42:13.506Z,-3.47
2023-02-08T00:44:45.284Z,-3.48
2023-02-08T00:47:16.649Z,-3.56
2023-02-08T00:49:47.948Z,-3.57
2023-02-08T00:52:19.530Z,-3.61
2023-02-08T00:54:50.810Z,-3.65
2023-02-08T00:57:22.082Z,-3.71
2023-02-08T00:59:53.489Z,-3.75
2023-02-08T01:02:25.142Z,-3.90
2023-02-08T01:04:56.423Z,-3.80
2023-02-08T01:07:27.755Z,-3.83
2023-02-08T01:10:00.551Z,-3.86
2023-02-08T01:12:32.032Z,-3.92
2023-02-08T01:15:03.853Z,-4.03
2023-02-08T01:17:35.245Z,-3.93
2023-02-08T01:20:06.979Z,-3.95
2023-02-08T01:22:38.239Z,-3.98
2023-02-08T01:25:09.491Z,-3.99
2023-02-08T01:27:40.778Z,-3.99
2023-02-08T01:30:12.845Z,-4.16
2023-02-08T01:32:44.188Z,-3.99
2023-02-08T01:35:15.558Z,-4.02
2023-02-08T01:37:46.818Z,-4.06
2023-02-08T01:40:18.155Z,-3.99
2023-02-08T01:42:49.442Z,-3.99
2023-02-08T01:45:27.895Z,-3.82
2023-02-08T01:48:06.304Z,-3.84
2023-02-08T01:51:02.722Z,-3.73
2023-02-08T01:53:35.358Z,-3.74
2023-02-08T01:56:18.430Z,-3.73
2023-02-08T01:58:53.866Z,-3.74
2023-02-08T02:01:27.220Z,-3.84
2023-02-08T02:04:04.224Z,-3.91
2023-02-08T02:06:40.876Z,-3.77
2023-02-08T02:09:19.941Z,-3.85
2023-02-08T02:11:53.313Z,-3.78
2023-02-08T02:14:25.553Z,-3.67
2023-02-08T02:16:59.730Z,-3.70
2023-02-08T02:19:31.065Z,-3.63
2023-02-08T02:22:48.556Z,-3.65
2023-02-08T02:25:32.157Z,-3.67
2023-02-08T02:28:38.613Z,-3.70
2023-02-08T02:31:47.211Z,-3.76
2023-02-08T02:34:37.102Z,-3.83
2023-02-08T02:37:28.198Z,-3.89
2023-02-08T02:40:25.721Z,-4.07
2023-02-08T02:43:33.020Z,-3.97
2023-02-08T02:46:38.774Z,-3.99
2023-02-08T02:49:36.062Z,-4.04
2023-02-08T02:52:21.120Z,-4.10
2023-02-08T02:54:55.554Z,-4.12
2023-02-08T02:57:32.347Z,-4.14
2023-02-08T03:00:10.436Z,-4.11
2023-02-08T03:02:42.091Z,-4.11
2023-02-08T03:05:13.626Z,-4.09
2023-02-08T03:07:53.695Z,-4.10
2023-02-08T03:10:49.372Z,-4.20
2023-02-08T03:13:35.354Z,-4.13
2023-02-08T03:16:19.289Z,-4.30
2023-02-08T03:19:04.912Z,-4.17
2023-02-08T03:21:55.297Z,-4.25
2023-02-08T03:24:36.078Z,-4.19
2023-02-08T03:27:22.620Z,-4.21
2023-02-08T03:30:13.269Z,-4.24
2023-02-08T03:32:51.678Z,-4.30
2023-02-08T03:35:29.555Z,-4.30
2023-02-08T03:38:29.371Z,-4.35
2023-02-08T03:41:04.287Z,-4.37
2023-02-08T03:43:40.141Z,-4.42
2023-02-08T03:46:15.971Z,-4.47
2023-02-08T03:48:54.195Z,-4.52
2023-02-08T03:51:28.100Z,-4.72
2023-02-08T03:54:03.237Z,-4.62
2023-02-08T03:56:41.531Z,-4.63
2023-02-08T03:59:20.052Z,-4.81
2023-02-08T04:01:58.794Z,-4.57
2023-02-08T04:04:35.256Z,-4.63
2023-02-08T04:07:06.533Z,-4.67
2023-02-08T04:09:38.961Z,-4.74
2023-02-08T04:12:10.392Z,-4.78
2023-02-08T04:14:41.798Z,-4.80
2023-02-08T04:17:13.079Z,-4.88
2023-02-08T04:19:44.435Z,-5.01
2023-02-08T04:22:15.757Z,-4.84
2023-02-08T04:24:47.062Z,-4.85
2023-02-08T04:27:18.479Z,-5.00
2023-02-08T04:29:49.853Z,-5.06
2023-02-08T04:32:21.165Z,-4.85
2023-02-08T04:34:52.478Z,-4.87
2023-02-08T04:37:23.879Z,-4.90
2023-02-08T04:39:55.159Z,-4.93
2023-02-08T04:42:26.571Z,-4.98
2023-02-08T04:44:57.859Z,-4.98
2023-02-08T04:47:29.314Z,-5.03
2023-02-08T04:50:00.662Z,-5.03
2023-02-08T04:52:32.057Z,-5.04
2023-02-08T04:55:03.427Z,-5.28
2023-02-08T04:57:34.709Z,-5.10
2023-02-08T05:00:06.625Z,-5.11
2023-02-08T05:02:37.901Z,-5.12
2023-02-08T05:05:09.217Z,-5.38
2023-02-08T05:07:43.592Z,-5.15
2023-02-08T05:10:15.649Z,-5.15
2023-02-08T05:12:47.090Z,-5.12
2023-02-08T05:15:18.399Z,-5.14
2023-02-08T05:17:49.744Z,-5.30
2023-02-08T05:20:21.575Z,-5.27
2023-02-08T05:22:52.874Z,-5.32
2023-02-08T05:25:24.236Z,-5.17
2023-02-08T05:27:55.688Z,-5.27
2023-02-08T05:30:27.071Z,-5.23
2023-02-08T05:32:58.616Z,-5.19
2023-02-08T05:35:30.147Z,-5.30
2023-02-08T05:38:01.568Z,-5.27
2023-02-08T05:40:33.457Z,-5.04
2023-02-08T05:43:04.820Z,-5.00
2023-02-08T05:45:36.190Z,-4.95
2023-02-08T05:48:07.527Z,-4.91
2023-02-08T05:50:39.262Z,-4.94
2023-02-08T05:53:10.904Z,-4.89
2023-02-08T05:55:46.260Z,-4.93
2023-02-08T05:58:17.594Z,-4.76
2023-02-08T06:00:49.048Z,-4.77
2023-02-08T06:03:20.599Z,-4.77
2023-02-08T06:05:52.084Z,-4.63
2023-02-08T06:08:23.376Z,-4.56
2023-02-08T06:10:54.731Z,-4.55
2023-02-08T06:13:26.122Z,-4.74
2023-02-08T06:15:57.795Z,-4.87
2023-02-08T06:18:29.119Z,-4.70
2023-02-08T06:21:00.448Z,-4.77
2023-02-08T06:23:31.966Z,-4.72
2023-02-08T06:26:03.642Z,-4.76
2023-02-08T06:28:35.035Z,-4.79
2023-02-08T06:31:06.334Z,-5.00
2023-02-08T06:33:37.717Z,-4.85
2023-02-08T06:36:09.250Z,-4.92
2023-02-08T06:38:40.637Z,-4.94
2023-02-08T06:41:11.924Z,-5.00
2023-02-08T06:43:43.302Z,-4.87
2023-02-08T06:46:14.601Z,-4.84
2023-02-08T06:48:46.064Z,-4.86
2023-02-08T06:51:17.448Z,-4.79
2023-02-08T06:53:48.909Z,-4.69
2023-02-08T06:56:20.246Z,-4.71
2023-02-08T06:58:51.564Z,-4.68
2023-02-08T07:01:22.993Z,-4.72
2023-02-08T07:03:54.435Z,-4.95
2023-02-08T07:06:25.799Z,-4.72
2023-02-08T07:08:57.249Z,-4.74
2023-02-08T07:11:28.590Z,-4.70
2023-02-08T07:14:00.111Z,-4.74
2023-02-08T07:16:31.414Z,-4.71
2023-02-08T07:19:02.818Z,-4.67
2023-02-08T07:21:34.289Z,-4.61
2023-02-08T07:24:05.902Z,-4.45
2023-02-08T07:26:37.307Z,-4.46
2023-02-08T07:29:08.631Z,-4.47
2023-02-08T07:31:40.093Z,-4.33
2023-02-08T07:34:11.497Z,-4.35
2023-02-08T07:36:42.774Z,-4.23
2023-02-08T07:39:14.199Z,-4.25
2023-02-08T07:41:45.542Z,-4.15
2023-02-08T07:44:17.064Z,-4.17
2023-02-08T07:46:48.432Z,-4.07
2023-02-08T07:49:19.789Z,-4.02
2023-02-08T07:51:51.065Z,-4.09
2023-02-08T07:54:22.516Z,-3.93
2023-02-08T07:56:53.897Z,-3.77
2023-02-08T07:59:25.382Z,-3.72
2023-02-08T08:01:56.758Z,-3.55
2023-02-08T08:04:28.157Z,-3.52
2023-02-08T08:06:59.431Z,-3.32
2023-02-08T08:09:30.938Z,-3.35
2023-02-08T08:12:02.701Z,-3.04
2023-02-08T08:14:34.029Z,-2.95
2023-02-08T08:17:05.367Z,-2.90
2023-02-08T08:19:36.748Z,-2.66
2023-02-08T08:22:08.031Z,-2.51
2023-02-08T08:24:39.311Z,-2.38
2023-02-08T08:27:10.687Z,-2.29
2023-02-08T08:29:42.156Z,-2.30
2023-02-08T08:32:13.417Z,-2.01
2023-02-08T08:34:44.715Z,-1.99
2023-02-08T08:37:15.988Z,-1.77
2023-02-08T08:39:47.280Z,-1.62
2023-02-08T08:42:18.723Z,-1.50
2023-02-08T08:44:50.131Z,-1.45
2023-02-08T08:47:21.734Z,-1.32
2023-02-08T08:49:53.175Z,-1.53
2023-02-08T08:52:24.509Z,-1.15
2023-02-08T08:54:55.891Z,-1.02
2023-02-08T08:57:27.204Z,-0.85
2023-02-08T08:59:58.584Z,-0.59
2023-02-08T09:02:29.971Z,-0.56
2023-02-08T09:05:02.677Z,-0.43
2023-02-08T09:07:34.286Z,-0.24
2023-02-08T09:10:06.047Z,0.07
2023-02-08T09:12:37.396Z,0.21
2023-02-08T09:15:08.912Z,0.29
2023-02-08T09:17:40.198Z,0.56
2023-02-08T09:20:12.592Z,0.56
2023-02-08T09:22:43.852Z,0.72
2023-02-08T09:25:15.492Z,0.90
2023-02-08T09:27:46.872Z,1.08
2023-02-08T09:30:18.144Z,1.28
2023-02-08T09:32:49.418Z,1.41
2023-02-08T09:35:20.694Z,1.55
2023-02-08T09:37:55.324Z,1.70
2023-02-08T09:40:42.771Z,1.80
2023-02-08T09:43:57.560Z,2.06
2023-02-08T09:46:32.637Z,2.20
2023-02-08T09:49:08.856Z,2.36
2023-02-08T09:51:53.577Z,2.50
2023-02-08T09:54:39.017Z,2.65
2023-02-08T09:57:16.172Z,2.85
2023-02-08T10:00:00.142Z,3.01
2023-02-08T10:02:34.099Z,3.16
2023-02-08T10:05:20.475Z,3.27
2023-02-08T10:07:51.907Z,3.48
2023-02-08T10:10:59.086Z,3.46
2023-02-08T10:13:45.703Z,3.75
2023-02-08T10:16:41.952Z,3.84
2023-02-08T10:19:46.852Z,3.98
2023-02-08T10:22:48.990Z,3.81
2023-02-08T10:25:27.308Z,4.19
2023-02-08T10:28:23.246Z,4.28
2023-02-08T10:31:10.535Z,4.28
2023-02-08T10:34:00.884Z,4.35
2023-02-08T10:36:39.424Z,4.39
2023-02-08T10:39:23.963Z,4.45
2023-02-08T10:41:55.653Z,4.60
2023-02-08T10:44:55.944Z,4.72
2023-02-08T10:47:42.979Z,4.84
2023-02-08T10:50:35.531Z,4.96
2023-02-08T10:53:15.354Z,5.08
2023-02-08T10:55:48.188Z,5.19
2023-02-08T10:58:22.975Z,5.25
2023-02-08T11:00:55.160Z,5.36
2023-02-08T11:03:29.213Z,5.43
2023-02-08T11:06:00.672Z,5.41
2023-02-08T11:08:32.036Z,5.49
2023-02-08T11:11:10.260Z,5.48
2023-02-08T11:13:44.352Z,5.64
2023-02-08T11:16:26.690Z,5.82
2023-02-08T11:19:07.739Z,5.89
2023-02-08T11:21:41.094Z,5.96
2023-02-08T11:24:17.476Z,6.01
2023-02-08T11:26:50.945Z,6.04
2023-02-08T11:29:25.824Z,6.10
2023-02-08T11:32:01.358Z,6.14
2023-02-08T11:34:39.138Z,6.20
2023-02-08T11:37:17.538Z,6.19
2023-02-08T11:39:54.139Z,6.24
2023-02-08T11:42:40.983Z,6.28
2023-02-08T11:45:30.038Z,6.31
2023-02-08T11:48:04.934Z,6.35
2023-02-08T11:50:39.284Z,6.37
2023-02-08T11:53:27.569Z,6.39
2023-02-08T11:56:06.326Z,6.44
2023-02-08T11:58:37.658Z,6.51
2023-02-08T12:01:21.130Z,6.42
2023-02-08T12:03:52.780Z,6.60
2023-02-08T12:06:33.804Z,6.70
2023-02-08T12:09:30.507Z,6.80
2023-02-08T12:12:26.609Z,6.87
2023-02-08T12:15:16.840Z,6.93
2023-02-08T12:17:48.059Z,6.94
2023-02-08T12:20:42.438Z,6.99
2023-02-08T12:23:49.125Z,7.01
2023-02-08T12:26:45.049Z,7.05
2023-02-08T12:29:47.986Z,7.09
2023-02-08T12:32:51.929Z,7.16
2023-02-08T12:36:02.790Z,7.25
2023-02-08T12:39:19.699Z,7.31
2023-02-08T12:42:19.424Z,7.36
2023-02-08T12:45:09.319Z,7.43
2023-02-08T12:47:58.269Z,7.46
2023-02-08T12:50:52.825Z,7.40
2023-02-08T12:53:43.797Z,7.47
2023-02-08T12:56:26.299Z,7.54
2023-02-08T12:59:11.790Z,7.64
2023-02-08T13:01:48.402Z,7.67
2023-02-08T13:04:29.702Z,7.67
2023-02-08T13:07:09.974Z,7.70
2023-02-08T13:10:02.515Z,7.74
2023-02-08T13:12:42.141Z,7.70
2023-02-08T13:15:30.157Z,7.79
2023-02-08T13:18:29.731Z,7.86
2023-02-08T13:21:11.469Z,7.94
2023-02-08T13:23:52.436Z,7.87
2023-02-08T13:26:28.005Z,8.08
2023-02-08T13:29:02.458Z,8.11
2023-02-08T13:31:40.953Z,8.11
2023-02-08T13:34:21.489Z,8.14
2023-02-08T13:36:57.362Z,8.23
2023-02-08T13:39:36.736Z,8.30
2023-02-08T13:42:33.007Z,8.36
2023-02-08T13:45:07.478Z,8.27
2023-02-08T13:47:49.188Z,8.47
2023-02-08T13:50:48.516Z,8.53
2023-02-08T13:53:38.435Z,8.60
2023-02-08T13:56:12.067Z,8.53
2023-02-08T13:58:49.368Z,8.58
2023-02-08T14:01:22.405Z,8.59
2023-02-08T14:04:09.826Z,8.53
2023-02-08T14:06:43.990Z,8.52
2023-02-08T14:09:15.254Z,8.52
2023-02-08T14:11:54.572Z,8.51
2023-02-08T14:14:36.342Z,8.49
2023-02-08T14:17:22.217Z,8.46
2023-02-08T14:20:03.896Z,8.59
2023-02-08T14:22:51.868Z,8.64
2023-02-08T14:25:45.007Z,8.67
2023-02-08T14:28:30.398Z,8.70
2023-02-08T14:31:07.183Z,8.69
2023-02-08T14:33:42.948Z,8.60
2023-02-08T14:36:35.001Z,8.64
2023-02-08T14:39:26.300Z,8.57
2023-02-08T14:42:05.274Z,8.49
2023-02-08T14:44:39.522Z,8.40
2023-02-08T14:47:36.807Z,8.33
2023-02-08T14:50:18.871Z,8.22
2023-02-08T14:53:13.298Z,8.09
2023-02-08T14:55:52.289Z,7.90
2023-02-08T14:58:37.497Z,7.72
2023-02-08T15:01:44.039Z,7.52
2023-02-08T15:04:18.251Z,7.35
2023-02-08T15:07:04.624Z,7.19
2023-02-08T15:09:38.681Z,7.05
2023-02-08T15:12:24.626Z,6.92
2023-02-08T15:14:59.172Z,6.79
2023-02-08T15:17:38.566Z,6.68
2023-02-08T15:20:22.343Z,6.57
2023-02-08T15:23:02.548Z,6.45
2023-02-08T15:25:36.839Z,6.34
2023-02-08T15:28:20.753Z,6.21
2023-02-08T15:30:59.401Z,6.01
2023-02-08T15:33:31.150Z,6.06
2023-02-08T15:36:06.775Z,5.88
2023-02-08T15:38:38.779Z,5.86
2023-02-08T15:41:14.442Z,5.75
2023-02-08T15:43:45.735Z,5.67
2023-02-08T15:46:26.594Z,5.57
2023-02-08T15:48:59.351Z,5.47
2023-02-08T15:51:30.889Z,5.36
2023-02-08T15:54:02.942Z,5.19
2023-02-08T15:56:40.716Z,5.13
2023-02-08T15:59:25.471Z,4.91
2023-02-08T16:01:58.292Z,4.72
2023-02-08T16:04:29.616Z,4.69
2023-02-08T16:07:01.240Z,4.68
2023-02-08T16:09:32.692Z,4.49
2023-02-08T16:12:04.299Z,4.47
2023-02-08T16:14:52.200Z,4.22
2023-02-08T16:17:44.684Z,4.19
2023-02-08T16:20:26.003Z,3.91
2023-02-08T16:23:21.351Z,3.75
2023-02-08T16:25:52.661Z,3.72
2023-02-08T16:28:28.013Z,3.58
2023-02-08T16:31:01.965Z,3.41
2023-02-08T16:33:37.143Z,3.24
2023-02-08T16:36:22.888Z,3.25
2023-02-08T16:39:16.079Z,3.14
2023-02-08T16:41:58.847Z,3.07
2023-02-08T16:44:36.585Z,3.01
2023-02-08T16:47:28.921Z,2.95
2023-02-08T16:50:00.206Z,2.77
2023-02-08T16:52:31.964Z,2.71
2023-02-08T16:55:03.836Z,2.76
2023-02-08T16:57:44.432Z,2.58
2023-02-08T17:00:23.390Z,2.46
2023-02-08T17:02:55.775Z,2.55
2023-02-08T17:05:30.673Z,2.50
2023-02-08T17:08:03.955Z,2.34
2023-02-08T17:10:35.912Z,2.33
2023-02-08T17:13:19.918Z,2.24
2023-02-08T17:15:52.908Z,2.27
2023-02-08T17:18:24.208Z,2.24
2023-02-08T17:20:59.517Z,2.18
2023-02-08T17:23:30.938Z,1.87
2023-02-08T17:26:02.938Z,2.00
2023-02-08T17:28:35.669Z,2.06
2023-02-08T17:31:07.184Z,1.72
2023-02-08T17:33:40.667Z,1.84
2023-02-08T17:36:14.677Z,1.88
2023-02-08T17:38:46.971Z,1.76
2023-02-08T17:41:19.952Z,1.73
2023-02-08T17:43:54.530Z,1.70
2023-02-08T17:46:27.808Z,1.63
2023-02-08T17:49:01.413Z,1.58
2023-02-08T17:51:34.194Z,1.36
2023-02-08T17:54:05.671Z,1.47
2023-02-08T17:56:37.021Z,1.40
2023-02-08T17:59:08.727Z,1.33
2023-02-08T18:01:40.492Z,1.28
2023-02-08T18:04:13.217Z,1.26
2023-02-08T18:06:44.472Z,1.20
2023-02-08T18:09:15.899Z,1.12
2023-02-08T18:11:47.154Z,1.10
2023-02-08T18:14:18.822Z,1.07
2023-02-08T18:16:50.190Z,1.01
2023-02-08T18:19:22.642Z,0.96
2023-02-08T18:21:53.996Z,0.88
2023-02-08T18:24:25.256Z,0.80
2023-02-08T18:26:58.922Z,0.59
2023-02-08T18:29:31.111Z,0.61
2023-02-08T18:32:02.612Z,0.65
2023-02-08T18:34:34.372Z,0.59
2023-02-08T18:37:05.619Z,0.41
2023-02-08T18:39:36.999Z,0.41
2023-02-08T18:42:08.459Z,0.45
2023-02-08T18:44:39.806Z,0.29
2023-02-08T18:47:11.128Z,0.36
2023-02-08T18:49:42.478Z,0.32
2023-02-08T18:52:15.755Z,0.26
2023-02-08T18:54:47.066Z,0.19
2023-02-08T18:57:18.574Z,0.13
2023-02-08T18:59:49.937Z,-0.23
2023-02-08T19:02:23.183Z,-0.04
2023-02-08T19:04:54.494Z,-0.07
2023-02-08T19:07:25.848Z,-0.05
2023-02-08T19:09:57.228Z,-0.11
2023-02-08T19:12:28.563Z,-0.22
2023-02-08T19:14:59.819Z,-0.19
2023-02-08T19:17:31.113Z,-0.39
2023-02-08T19:20:02.391Z,-0.32
2023-02-08T19:22:33.895Z,-0.32
2023-02-08T19:25:05.572Z,-0.42
2023-02-08T19:27:37.019Z,-0.37
2023-02-08T19:30:09.216Z,-0.44
2023-02-08T19:32:40.465Z,-0.47
2023-02-08T19:35:12.258Z,-0.52
2023-02-08T19:37:45.554Z,-0.56
2023-02-08T19:40:18.195Z,-0.59
2023-02-08T19:42:49.518Z,-0.61
2023-02-08T19:45:20.805Z,-0.66
2023-02-08T19:47:52.730Z,-0.75
2023-02-08T19:50:24.052Z,-0.77
2023-02-08T19:52:55.355Z,-0.79
2023-02-08T19:55:26.631Z,-0.82
2023-02-08T19:57:57.925Z,-0.86
2023-02-08T20:00:29.563Z,-0.91
2023-02-08T20:03:07.766Z,-0.98
2023-02-08T20:05:45.495Z,-0.98
2023-02-08T20:08:18.609Z,-1.00
2023-02-08T20:10:50.294Z,-1.02
2023-02-08T20:13:22.829Z,-1.06
2023-02-08T20:16:01.676Z,-1.09
2023-02-08T20:18:33.060Z,-1.10
2023-02-08T20:21:05.267Z,-1.15
2023-02-08T20:23:36.989Z,-1.15
2023-02-08T20:26:15.362Z,-1.15
2023-02-08T20:28:51.112Z,-1.20
2023-02-08T20:31:42.965Z,-1.32
2023-02-08T20:34:16.438Z,-1.36
2023-02-08T20:37:05.857Z,-1.34
2023-02-08T20:39:38.071Z,-1.37
2023-02-08T20:42:10.005Z,-1.61
2023-02-08T20:44:41.363Z,-1.43
2023-02-08T20:47:18.957Z,-1.55
2023-02-08T20:49:51.130Z,-1.47
2023-02-08T20:52:22.748Z,-1.52
2023-02-08T20:54:54.099Z,-1.53
2023-02-08T20:57:25.615Z,-1.66
2023-02-08T20:59:56.903Z,-1.67
2023-02-08T21:02:28.228Z,-1.57
2023-02-08T21:05:00.624Z,-1.73
2023-02-08T21:07:31.932Z,-1.73
2023-02-08T21:10:03.910Z,-1.68
2023-02-08T21:12:36.465Z,-1.74
2023-02-08T21:15:09.212Z,-1.76
2023-02-08T21:17:41.168Z,-1.93
2023-02-08T21:20:12.781Z,-1.85
2023-02-08T21:22:44.084Z,-1.96
2023-02-08T21:25:15.477Z,-2.04
2023-02-08T21:27:46.810Z,-2.22
2023-02-08T21:30:18.196Z,-2.18
2023-02-08T21:32:49.465Z,-2.07
2023-02-08T21:35:20.737Z,-2.10
2023-02-08T21:37:52.016Z,-2.15
2023-02-08T21:40:23.295Z,-2.34
2023-02-08T21:42:54.580Z,-2.18
2023-02-08T21:45:25.881Z,-2.19
2023-02-08T21:47:57.273Z,-2.33
2023-02-08T21:50:47.395Z,-2.22
2023-02-08T21:53:37.473Z,-2.25
2023-02-08T21:56:09.788Z,-2.29
2023-02-08T21:58:41.099Z,-2.27
2023-02-08T22:01:12.420Z,-2.59
2023-02-08T22:03:43.775Z,-2.29
2023-02-08T22:06:15.075Z,-2.31
2023-02-08T22:08:46.386Z,-2.32
2023-02-08T22:11:17.676Z,-2.33
2023-02-08T22:13:48.933Z,-2.31
2023-02-08T22:16:20.235Z,-2.31
2023-02-08T22:18:51.528Z,-2.35
2023-02-08T22:21:22.806Z,-2.32
2023-02-08T22:23:54.073Z,-2.31
2023-02-08T22:26:25.692Z,-2.35
2023-02-08T22:28:57.028Z,-2.38
2023-02-08T22:31:28.416Z,-2.38
2023-02-08T22:33:59.785Z,-2.52
2023-02-08T22:36:31.192Z,-2.48
2023-02-08T22:39:02.739Z,-2.56
2023-02-08T22:41:34.243Z,-2.53
2023-02-08T22:44:05.685Z,-2.57
2023-02-08T22:46:36.987Z,-2.51
2023-02-08T22:49:08.790Z,-2.58
2023-02-08T22:51:40.198Z,-2.52
2023-02-08T22:54:11.474Z,-2.54
2023-02-08T22:56:42.841Z,-2.68
2023-02-08T22:59:14.095Z,-2.55
2023-02-08T23:01:45.592Z,-2.60
2023-02-08T23:04:16.911Z,-2.65
2023-02-08T23:06:48.343Z,-2.67
2023-02-08T23:09:19.670Z,-2.68
2023-02-08T23:11:51.112Z,-2.71
2023-02-08T23:14:22.354Z,-2.74
2023-02-08T23:16:53.720Z,-2.77
2023-02-08T23:19:25.377Z,-2.82
2023-02-08T23:22:01.090Z,-2.85
2023-02-08T23:24:32.385Z,-3.01
2023-02-08T23:27:03.805Z,-2.91
2023-02-08T23:29:35.160Z,-2.98
2023-02-08T23:32:06.524Z,-2.95
2023-02-08T23:34:37.906Z,-3.02
2023-02-08T23:37:09.338Z,-2.97
2023-02-08T23:39:40.589Z,-2.97
2023-02-08T23:42:25.276Z,-2.93
2023-02-08T23:44:59.784Z,-3.07
2023-02-08T23:47:31.615Z,-3.07
2023-02-08T23:50:02.989Z,-3.06
2023-02-08T23:52:36.113Z,-2.97
2023-02-08T23:55:08.086Z,-2.97
2023-02-08T23:57:39.420Z,-3.08
